sensor_id;sensor_type;location;lat;lon;timestamp;pressure;altitude;pressure_sealevel;temperature;humidity
72975;BME280;61166;54.228;37.632;2023-05-23T21:04:07;99230.78;;;14.28;nan
72975;BME280;61166;54.228;37.632;2023-05-23T21:06:34;99229.41;;;14.37;nan
72975;BME280;61166;54.228;37.632;2023-05-23T21:09:01;99229.13;;;14.50;nan
72975;BME280;61166;54.228;37.632;2023-05-23T21:11:27;99235.09;;;14.57;nan
72975;BME280;61166;54.228;37.632;2023-05-23T21:13:54;99235.28;;;14.67;nan
72975;BME280;61166;54.228;37.632;2023-05-23T21:16:21;99229.53;;;14.70;nan
72975;BME280;61166;54.228;37.632;2023-05-23T21:18:48;99230.66;;;14.74;nan
72975;BME280;61166;54.228;37.632;2023-05-23T21:21:14;99239.72;;;14.78;nan
72975;BME280;61166;54.228;37.632;2023-05-23T21:23:41;99240.41;;;14.85;nan
72975;BME280;61166;54.228;37.632;2023-05-23T21:26:07;99246.25;;;14.88;nan
72975;BME280;61166;54.228;37.632;2023-05-23T21:28:34;99245.47;;;14.87;nan
72975;BME280;61166;54.228;37.632;2023-05-23T21:31:02;99248.44;;;14.91;nan
72975;BME280;61166;54.228;37.632;2023-05-23T21:33:28;99247.88;;;14.89;nan
72975;BME280;61166;54.228;37.632;2023-05-23T21:35:55;99243.13;;;14.91;nan
72975;BME280;61166;54.228;37.632;2023-05-23T21:38:25;99243.38;;;14.89;nan
72975;BME280;61166;54.228;37.632;2023-05-23T21:40:51;99244.50;;;14.93;nan
72975;BME280;61166;54.228;37.632;2023-05-23T21:43:18;99242.91;;;14.92;nan
72975;BME280;61166;54.228;37.632;2023-05-23T21:45:44;99242.09;;;14.92;nan
72975;BME280;61166;54.228;37.632;2023-05-23T21:48:11;99244.03;;;14.96;nan
72975;BME280;61166;54.228;37.632;2023-05-23T21:50:37;99233.59;;;14.90;nan
72975;BME280;61166;54.228;37.632;2023-05-23T21:53:04;99237.28;;;14.89;nan
72975;BME280;61166;54.228;37.632;2023-05-23T21:55:31;99232.78;;;14.89;nan
72975;BME280;61166;54.228;37.632;2023-05-23T21:57:57;99236.81;;;14.92;nan
72975;BME280;61166;54.228;37.632;2023-05-23T22:00:24;99239.69;;;14.90;nan
72975;BME280;61166;54.228;37.632;2023-05-23T22:02:51;99233.81;;;14.88;nan
72975;BME280;61166;54.228;37.632;2023-05-23T22:05:17;99230.38;;;14.88;nan
72975;BME280;61166;54.228;37.632;2023-05-23T22:07:44;99229.81;;;14.85;nan
72975;BME280;61166;54.228;37.632;2023-05-23T22:10:10;99230.03;;;14.84;nan
72975;BME280;61166;54.228;37.632;2023-05-23T22:12:37;99236.22;;;14.90;nan
72975;BME280;61166;54.228;37.632;2023-05-23T22:15:05;99233.03;;;14.88;nan
72975;BME280;61166;54.228;37.632;2023-05-23T22:17:31;99231.19;;;14.88;nan
72975;BME280;61166;54.228;37.632;2023-05-23T22:19:59;99225.53;;;14.84;nan
72975;BME280;61166;54.228;37.632;2023-05-23T22:22:25;99224.28;;;14.87;nan
72975;BME280;61166;54.228;37.632;2023-05-23T22:24:52;99219.22;;;14.85;nan
72975;BME280;61166;54.228;37.632;2023-05-23T22:27:19;99227.72;;;14.88;nan
72975;BME280;61166;54.228;37.632;2023-05-23T22:29:45;99222.44;;;14.88;nan
72975;BME280;61166;54.228;37.632;2023-05-23T22:32:12;99221.84;;;14.85;nan
72975;BME280;61166;54.228;37.632;2023-05-23T22:34:38;99221.06;;;14.85;nan
72975;BME280;61166;54.228;37.632;2023-05-23T22:37:06;99223.13;;;14.83;nan
72975;BME280;61166;54.228;37.632;2023-05-23T22:39:32;99221.84;;;14.85;nan
72975;BME280;61166;54.228;37.632;2023-05-23T22:41:59;99221.06;;;14.85;nan
72975;BME280;61166;54.228;37.632;2023-05-23T22:44:25;99221.84;;;14.85;nan
72975;BME280;61166;54.228;37.632;2023-05-23T22:46:52;99228.75;;;14.86;nan
72975;BME280;61166;54.228;37.632;2023-05-23T22:49:18;99222.66;;;14.86;nan
72975;BME280;61166;54.228;37.632;2023-05-23T22:51:45;99225.63;;;14.90;nan
72975;BME280;61166;54.228;37.632;2023-05-23T22:54:12;99231.19;;;14.88;nan
72975;BME280;61166;54.228;37.632;2023-05-23T22:56:38;99233.25;;;14.86;nan
72975;BME280;61166;54.228;37.632;2023-05-23T22:59:05;99230.28;;;14.82;nan
72975;BME280;61166;54.228;37.632;2023-05-23T23:01:31;99227.06;;;14.80;nan
72975;BME280;61166;54.228;37.632;2023-05-23T23:03:58;99233.53;;;14.73;nan
72975;BME280;61166;54.228;37.632;2023-05-23T23:06:25;99230.31;;;14.71;nan
72975;BME280;61166;54.228;37.632;2023-05-23T23:08:52;99233.91;;;14.65;nan
72975;BME280;61166;54.228;37.632;2023-05-23T23:11:18;99223.47;;;14.58;nan
72975;BME280;61166;54.228;37.632;2023-05-23T23:13:45;99217.69;;;14.61;nan
72975;BME280;61166;54.228;37.632;2023-05-23T23:16:12;99217.13;;;14.59;nan
72975;BME280;61166;54.228;37.632;2023-05-23T23:18:38;99218.50;;;14.62;nan
72975;BME280;61166;54.228;37.632;2023-05-23T23:21:05;99221.38;;;14.60;nan
72975;BME280;61166;54.228;37.632;2023-05-23T23:23:31;99218.28;;;14.63;nan
72975;BME280;61166;54.228;37.632;2023-05-23T23:25:58;99217.31;;;14.69;nan
72975;BME280;61166;54.228;37.632;2023-05-23T23:28:24;99209.38;;;14.69;nan
72975;BME280;61166;54.228;37.632;2023-05-23T23:30:51;99204.91;;;14.70;nan
72975;BME280;61166;54.228;37.632;2023-05-23T23:33:17;99206.75;;;14.69;nan
72975;BME280;61166;54.228;37.632;2023-05-23T23:35:44;99196.63;;;14.66;nan
72975;BME280;61166;54.228;37.632;2023-05-23T23:38:11;99196.84;;;14.65;nan
72975;BME280;61166;54.228;37.632;2023-05-23T23:40:37;99199.84;;;14.68;nan
72975;BME280;61166;54.228;37.632;2023-05-23T23:43:04;99198.69;;;14.64;nan
72975;BME280;61166;54.228;37.632;2023-05-23T23:45:30;99197.09;;;14.63;nan
72975;BME280;61166;54.228;37.632;2023-05-23T23:47:57;99191.81;;;14.63;nan
72975;BME280;61166;54.228;37.632;2023-05-23T23:50:24;99190.19;;;14.62;nan
72975;BME280;61166;54.228;37.632;2023-05-23T23:52:50;99189.06;;;14.58;nan
72975;BME280;61166;54.228;37.632;2023-05-23T23:55:17;99195.97;;;14.59;nan
72975;BME280;61166;54.228;37.632;2023-05-23T23:57:44;99184.81;;;14.57;nan
